createdAt,value
2022-08-04T00:01:37.318Z,20.70
2022-08-04T00:04:15.059Z,20.70
2022-08-04T00:07:44.625Z,20.80
2022-08-04T00:10:17.258Z,20.70
2022-08-04T00:12:52.328Z,20.70
2022-08-04T00:15:20.359Z,20.60
2022-08-04T00:17:54.951Z,20.60
2022-08-04T00:20:22.301Z,20.60
2022-08-04T00:22:52.587Z,20.50
2022-08-04T00:25:20.080Z,20.50
2022-08-04T00:27:47.585Z,20.40
2022-08-04T00:30:14.703Z,20.40
2022-08-04T00:32:42.202Z,20.40
2022-08-04T00:35:15.230Z,20.50
2022-08-04T00:37:45.751Z,20.40
2022-08-04T00:40:43.447Z,20.40
2022-08-04T00:43:34.213Z,20.30
2022-08-04T00:46:33.721Z,20.20
2022-08-04T00:49:33.412Z,20.20
2022-08-04T00:52:31.781Z,20.20
2022-08-04T00:55:23.358Z,20.10
2022-08-04T00:58:16.544Z,20.10
2022-08-04T01:01:03.046Z,20.10
2022-08-04T01:03:58.220Z,20.00
2022-08-04T01:06:56.547Z,20.00
2022-08-04T01:09:59.660Z,20.00
2022-08-04T01:12:38.628Z,19.90
2022-08-04T01:15:59.902Z,19.80
2022-08-04T01:19:02.892Z,19.70
2022-08-04T01:21:29.754Z,19.60
2022-08-04T01:24:23.919Z,19.60
2022-08-04T01:27:10.395Z,19.60
2022-08-04T01:29:59.216Z,19.50
2022-08-04T01:32:38.898Z,19.40
2022-08-04T01:35:15.394Z,19.40
2022-08-04T01:38:20.154Z,19.30
2022-08-04T01:40:54.226Z,19.40
2022-08-04T01:43:22.508Z,19.30
2022-08-04T01:45:59.805Z,19.30
2022-08-04T01:48:28.715Z,19.30
2022-08-04T01:51:09.867Z,19.30
2022-08-04T01:53:40.909Z,19.30
2022-08-04T01:56:10.467Z,19.20
2022-08-04T01:58:40.272Z,19.20
2022-08-04T02:01:11.051Z,19.20
2022-08-04T02:04:20.971Z,19.10
2022-08-04T02:07:08.590Z,19.10
2022-08-04T02:10:22.092Z,19.10
2022-08-04T02:13:25.603Z,19.00
2022-08-04T02:16:05.068Z,19.00
2022-08-04T02:18:36.682Z,18.90
2022-08-04T02:21:04.635Z,18.80
2022-08-04T02:23:43.433Z,18.70
2022-08-04T02:26:22.718Z,18.60
2022-08-04T02:29:18.152Z,18.60
2022-08-04T02:32:14.466Z,18.60
2022-08-04T02:35:07.335Z,18.60
2022-08-04T02:37:35.781Z,18.60
2022-08-04T02:40:06.912Z,18.50
2022-08-04T02:42:34.541Z,18.60
2022-08-04T02:45:02.969Z,18.50
2022-08-04T02:48:29.506Z,18.50
2022-08-04T02:50:28.616Z,18.50
2022-08-04T02:52:58.971Z,18.50
2022-08-04T02:55:29.401Z,18.50
2022-08-04T02:57:59.459Z,18.50
2022-08-04T03:00:27.016Z,18.50
2022-08-04T03:03:09.120Z,18.50
2022-08-04T03:06:10.112Z,18.50
2022-08-04T03:09:14.865Z,18.50
2022-08-04T03:12:11.573Z,18.50
2022-08-04T03:15:22.091Z,18.50
2022-08-04T03:18:36.231Z,18.50
2022-08-04T03:21:30.452Z,18.50
2022-08-04T03:24:20.173Z,18.50
2022-08-04T03:27:16.510Z,18.40
2022-08-04T03:30:06.987Z,18.30
2022-08-04T03:33:25.435Z,18.20
2022-08-04T03:36:18.903Z,18.10
2022-08-04T03:39:07.080Z,18.00
2022-08-04T03:42:16.708Z,18.00
2022-08-04T03:45:24.114Z,18.00
2022-08-04T03:48:36.071Z,18.00
2022-08-04T03:52:21.772Z,18.00
2022-08-04T03:55:09.690Z,18.00
2022-08-04T03:58:11.760Z,18.00
2022-08-04T04:01:13.596Z,18.10
2022-08-04T04:04:20.539Z,18.00
2022-08-04T04:07:04.753Z,18.00
2022-08-04T04:10:05.912Z,18.00
2022-08-04T04:13:34.906Z,18.00
2022-08-04T04:16:31.581Z,18.00
2022-08-04T04:19:01.325Z,18.10
2022-08-04T04:21:44.847Z,18.10
2022-08-04T04:24:33.988Z,18.10
2022-08-04T04:27:48.977Z,18.10
2022-08-04T04:30:44.627Z,18.20
2022-08-04T04:33:45.232Z,18.20
2022-08-04T04:36:46.261Z,18.20
2022-08-04T04:39:50.920Z,18.30
2022-08-04T04:42:48.166Z,18.30
2022-08-04T04:45:54.352Z,18.30
2022-08-04T04:48:30.054Z,18.30
2022-08-04T04:51:40.253Z,18.40
2022-08-04T04:54:26.438Z,18.40
2022-08-04T04:57:16.318Z,18.40
2022-08-04T05:00:09.610Z,18.50
2022-08-04T05:02:42.301Z,18.50
2022-08-04T05:05:38.405Z,18.60
2022-08-04T05:08:43.927Z,18.60
2022-08-04T05:11:46.329Z,18.70
2022-08-04T05:14:41.475Z,18.80
2022-08-04T05:17:27.540Z,18.90
2022-08-04T05:20:15.426Z,18.90
2022-08-04T05:23:01.098Z,19.00
2022-08-04T05:25:39.162Z,19.10
2022-08-04T05:28:15.630Z,19.20
2022-08-04T05:30:53.086Z,19.30
2022-08-04T05:33:48.040Z,19.40
2022-08-04T05:36:39.477Z,19.50
2022-08-04T05:39:29.883Z,19.60
2022-08-04T05:42:04.438Z,19.70
2022-08-04T05:44:33.367Z,19.70
2022-08-04T05:47:01.276Z,19.80
2022-08-04T05:49:29.415Z,19.80
2022-08-04T05:52:01.404Z,19.80
2022-08-04T05:54:31.573Z,19.80
2022-08-04T05:56:59.164Z,19.80
2022-08-04T05:59:27.963Z,19.70
2022-08-04T06:01:58.375Z,19.60
2022-08-04T06:04:49.240Z,19.60
2022-08-04T06:07:16.408Z,19.70
2022-08-04T06:09:43.575Z,19.80
2022-08-04T06:12:28.330Z,19.80
2022-08-04T06:14:59.769Z,19.90
2022-08-04T06:18:35.496Z,19.90
2022-08-04T06:20:32.828Z,19.90
2022-08-04T06:23:14.680Z,19.80
2022-08-04T06:25:51.587Z,19.80
2022-08-04T06:28:20.028Z,19.90
2022-08-04T06:30:49.942Z,19.90
2022-08-04T06:33:54.269Z,19.90
2022-08-04T06:36:22.304Z,19.80
2022-08-04T06:38:58.405Z,19.70
2022-08-04T06:41:28.779Z,19.70
2022-08-04T06:43:59.765Z,19.80
2022-08-04T06:46:28.391Z,19.80
2022-08-04T06:48:56.338Z,19.80
2022-08-04T06:51:37.033Z,19.90
2022-08-04T06:54:06.242Z,19.90
2022-08-04T06:56:36.658Z,20.00
2022-08-04T06:59:04.317Z,20.00
2022-08-04T07:01:32.923Z,20.10
2022-08-04T07:04:00.350Z,20.20
2022-08-04T07:06:27.486Z,20.30
2022-08-04T07:08:56.419Z,20.40
2022-08-04T07:11:23.897Z,20.50
2022-08-04T07:13:51.498Z,20.70
2022-08-04T07:16:21.363Z,20.80
2022-08-04T07:18:58.032Z,20.90
2022-08-04T07:21:37.551Z,21.00
2022-08-04T07:24:05.048Z,21.00
2022-08-04T07:26:32.024Z,21.10
2022-08-04T07:28:59.678Z,21.30
2022-08-04T07:31:35.232Z,21.30
2022-08-04T07:34:21.034Z,21.30
2022-08-04T07:36:55.535Z,21.20
2022-08-04T07:39:28.008Z,21.20
2022-08-04T07:42:01.594Z,21.20
2022-08-04T07:44:33.897Z,21.10
2022-08-04T07:47:03.949Z,21.20
2022-08-04T07:49:55.168Z,21.20
2022-08-04T07:52:18.658Z,21.30
2022-08-04T07:54:46.758Z,21.30
2022-08-04T07:57:39.633Z,21.30
2022-08-04T08:00:00.650Z,21.20
2022-08-04T08:02:28.451Z,21.10
2022-08-04T08:04:55.995Z,21.10
2022-08-04T08:07:23.278Z,21.10
2022-08-04T08:09:50.711Z,21.10
2022-08-04T08:12:35.298Z,21.10
2022-08-04T08:15:10.337Z,21.10
2022-08-04T08:17:58.384Z,21.10
2022-08-04T08:20:31.262Z,21.10
2022-08-04T08:22:59.994Z,21.10
2022-08-04T08:25:27.270Z,21.10
2022-08-04T08:27:55.710Z,21.00
2022-08-04T08:30:25.146Z,21.10
2022-08-04T08:33:01.609Z,21.10
2022-08-04T08:35:34.766Z,21.10
2022-08-04T08:38:10.700Z,21.20
2022-08-04T08:41:26.294Z,21.20
2022-08-04T08:44:37.438Z,21.30
2022-08-04T08:47:30.530Z,21.30
2022-08-04T08:50:58.921Z,21.30
2022-08-04T08:53:53.105Z,21.30
2022-08-04T08:56:37.202Z,21.30
2022-08-04T08:59:44.927Z,21.30
2022-08-04T09:02:41.435Z,21.30
2022-08-04T09:05:30.271Z,21.40
2022-08-04T09:08:20.954Z,21.50
2022-08-04T09:11:10.753Z,21.70
2022-08-04T09:14:01.495Z,21.70
2022-08-04T09:16:47.740Z,21.70
2022-08-04T09:19:46.030Z,21.70
2022-08-04T09:22:51.015Z,21.70
2022-08-04T09:25:27.690Z,21.80
2022-08-04T09:28:09.607Z,21.90
2022-08-04T09:30:49.402Z,22.20
2022-08-04T09:33:45.573Z,22.60
2022-08-04T09:36:26.052Z,23.00
2022-08-04T09:39:29.623Z,23.50
2022-08-04T09:42:23.173Z,23.80
2022-08-04T09:45:06.498Z,24.10
2022-08-04T09:47:48.153Z,24.40
2022-08-04T09:50:50.023Z,24.70
2022-08-04T09:53:53.371Z,24.80
2022-08-04T09:56:56.936Z,25.10
2022-08-04T09:59:43.323Z,25.40
2022-08-04T10:02:14.051Z,25.60
2022-08-04T10:04:43.885Z,25.80
2022-08-04T10:08:04.659Z,26.00
2022-08-04T10:10:53.350Z,26.20
2022-08-04T10:13:31.372Z,26.00
2022-08-04T10:16:22.940Z,25.80
2022-08-04T10:19:13.145Z,26.30
2022-08-04T10:22:30.643Z,26.70
2022-08-04T10:26:03.182Z,26.60
2022-08-04T10:28:06.571Z,26.80
2022-08-04T10:30:37.244Z,27.50
2022-08-04T10:33:16.272Z,27.60
2022-08-04T10:35:52.522Z,27.50
2022-08-04T10:38:33.769Z,26.50
2022-08-04T10:41:40.318Z,26.40
2022-08-04T10:44:41.902Z,26.20
2022-08-04T10:47:21.009Z,26.40
2022-08-04T10:49:55.542Z,27.00
2022-08-04T10:52:43.365Z,27.60
2022-08-04T10:56:07.226Z,27.70
2022-08-04T10:58:20.699Z,27.90
2022-08-04T11:00:49.255Z,28.00
2022-08-04T11:03:50.047Z,28.30
2022-08-04T11:06:19.007Z,28.50
2022-08-04T11:08:52.163Z,28.70
2022-08-04T11:11:57.034Z,29.00
2022-08-04T11:14:36.181Z,29.10
2022-08-04T11:17:28.310Z,29.10
2022-08-04T11:20:34.713Z,29.10
2022-08-04T11:23:16.504Z,29.40
2022-08-04T11:26:24.263Z,29.80
2022-08-04T11:29:46.383Z,30.10
2022-08-04T11:32:21.305Z,29.70
2022-08-04T11:34:58.180Z,29.40
2022-08-04T11:37:52.071Z,29.60
2022-08-04T11:40:40.433Z,29.70
2022-08-04T11:44:01.110Z,29.30
2022-08-04T11:46:30.948Z,29.00
2022-08-04T11:49:06.088Z,28.90
2022-08-04T11:51:34.453Z,29.00
2022-08-04T11:54:02.062Z,29.40
2022-08-04T11:56:37.242Z,29.70
2022-08-04T11:59:10.152Z,30.00
2022-08-04T12:02:07.768Z,30.80
2022-08-04T12:04:58.237Z,31.20
2022-08-04T12:07:55.757Z,31.40
2022-08-04T12:10:52.424Z,30.80
2022-08-04T12:13:58.751Z,29.90
2022-08-04T12:19:30.969Z,30.40
2022-08-04T12:22:14.908Z,30.60
2022-08-04T12:24:59.770Z,31.20
2022-08-04T12:27:45.294Z,31.40
2022-08-04T12:31:00.012Z,31.40
2022-08-04T12:33:18.013Z,31.00
2022-08-04T12:36:20.606Z,31.20
2022-08-04T12:39:03.509Z,31.40
2022-08-04T12:41:58.763Z,31.60
2022-08-04T12:44:36.851Z,32.00
2022-08-04T12:47:36.493Z,31.90
2022-08-04T12:50:02.335Z,31.80
2022-08-04T12:53:03.626Z,31.10
2022-08-04T12:55:34.376Z,30.50
2022-08-04T12:58:10.423Z,29.90
2022-08-04T13:00:41.615Z,29.80
2022-08-04T13:03:16.811Z,30.10
2022-08-04T13:05:45.322Z,30.10
2022-08-04T13:08:15.533Z,29.80
2022-08-04T13:10:48.013Z,29.90
2022-08-04T13:13:22.058Z,30.40
2022-08-04T13:16:05.689Z,30.80
2022-08-04T13:18:40.238Z,31.50
2022-08-04T13:21:50.100Z,32.00
2022-08-04T13:24:31.051Z,32.00
2022-08-04T13:27:06.810Z,31.60
2022-08-04T13:29:58.804Z,30.90
2022-08-04T13:32:29.216Z,30.70
2022-08-04T13:34:58.634Z,30.60
2022-08-04T13:37:32.363Z,30.40
2022-08-04T13:40:00.335Z,30.90
2022-08-04T13:42:28.403Z,31.20
2022-08-04T13:44:59.886Z,31.40
2022-08-04T13:47:34.957Z,30.90
2022-08-04T13:50:27.510Z,30.40
2022-08-04T13:52:57.705Z,30.60
2022-08-04T13:55:31.371Z,30.50
2022-08-04T13:58:25.631Z,30.80
2022-08-04T14:01:06.282Z,31.00
2022-08-04T14:03:54.369Z,31.20
2022-08-04T14:06:28.516Z,31.10
2022-08-04T14:09:14.776Z,31.10
2022-08-04T14:12:07.017Z,31.50
2022-08-04T14:14:35.768Z,31.60
2022-08-04T14:17:20.006Z,31.90
2022-08-04T14:19:53.692Z,32.10
2022-08-04T14:22:26.921Z,32.40
2022-08-04T14:25:07.355Z,32.70
2022-08-04T14:27:57.463Z,32.60
2022-08-04T14:30:35.474Z,32.10
2022-08-04T14:34:01.550Z,31.50
2022-08-04T14:36:04.224Z,31.20
2022-08-04T14:38:48.459Z,31.20
2022-08-04T14:41:17.773Z,31.00
2022-08-04T14:43:52.704Z,30.70
2022-08-04T14:46:21.261Z,30.50
2022-08-04T14:49:10.331Z,30.20
2022-08-04T14:51:52.551Z,30.00
2022-08-04T14:54:30.389Z,30.00
2022-08-04T14:57:05.164Z,30.10
2022-08-04T14:59:44.164Z,30.10
2022-08-04T15:02:29.624Z,30.00
2022-08-04T15:04:58.883Z,30.00
2022-08-04T15:07:26.858Z,30.00
2022-08-04T15:09:54.479Z,29.90
2022-08-04T15:12:22.273Z,30.10
2022-08-04T15:14:49.572Z,30.00
2022-08-04T15:17:29.381Z,30.10
2022-08-04T15:19:58.497Z,30.30
2022-08-04T15:22:25.666Z,30.20
2022-08-04T15:24:55.619Z,30.20
2022-08-04T15:27:30.912Z,30.10
2022-08-04T15:30:02.627Z,29.90
2022-08-04T15:32:36.496Z,29.40
2022-08-04T15:35:12.992Z,29.30
2022-08-04T15:38:06.402Z,29.10
2022-08-04T15:40:55.674Z,29.00
2022-08-04T15:43:47.125Z,29.00
2022-08-04T15:46:47.689Z,28.90
2022-08-04T15:49:23.143Z,28.60
2022-08-04T15:52:12.508Z,28.30
2022-08-04T15:54:42.238Z,27.90
2022-08-04T15:58:01.572Z,27.80
2022-08-04T16:00:29.453Z,27.80
2022-08-04T16:02:56.526Z,27.90
2022-08-04T16:05:23.553Z,28.10
2022-08-04T16:08:15.428Z,28.10
2022-08-04T16:10:45.564Z,27.90
2022-08-04T16:13:16.368Z,27.70
2022-08-04T16:15:55.510Z,27.70
2022-08-04T16:18:31.489Z,27.60
2022-08-04T16:21:03.439Z,27.30
2022-08-04T16:23:55.157Z,27.20
2022-08-04T16:27:00.561Z,27.10
2022-08-04T16:29:39.418Z,27.00
2022-08-04T16:32:07.049Z,27.00
2022-08-04T16:34:55.429Z,27.10
2022-08-04T16:37:39.096Z,27.20
2022-08-04T16:40:34.393Z,27.40
2022-08-04T16:43:30.754Z,27.60
2022-08-04T16:46:03.673Z,27.50
2022-08-04T16:48:33.587Z,27.30
2022-08-04T16:51:06.758Z,27.30
2022-08-04T16:54:03.416Z,27.10
2022-08-04T16:56:35.338Z,27.00
2022-08-04T16:59:10.431Z,26.90
2022-08-04T17:01:48.391Z,26.90
2022-08-04T17:04:16.800Z,26.90
2022-08-04T17:06:49.376Z,27.00
2022-08-04T17:09:18.885Z,26.70
2022-08-04T17:11:47.796Z,26.60
2022-08-04T17:14:23.687Z,26.50
2022-08-04T17:16:52.230Z,26.40
2022-08-04T17:19:26.121Z,26.30
2022-08-04T17:22:10.177Z,26.10
2022-08-04T17:24:40.973Z,26.10
2022-08-04T17:28:19.101Z,26.20
2022-08-04T17:29:55.937Z,26.10
2022-08-04T17:32:23.839Z,26.10
2022-08-04T17:34:58.530Z,25.90
2022-08-04T17:37:39.801Z,25.90
2022-08-04T17:40:18.570Z,25.70
2022-08-04T17:44:03.431Z,25.60
2022-08-04T17:46:28.678Z,25.40
2022-08-04T17:49:16.519Z,25.20
2022-08-04T17:52:06.811Z,25.20
2022-08-04T17:54:40.526Z,25.00
2022-08-04T17:57:22.296Z,24.80
2022-08-04T17:59:59.599Z,24.70
2022-08-04T18:02:34.889Z,24.60
2022-08-04T18:05:11.703Z,24.40
2022-08-04T18:08:42.825Z,24.20
2022-08-04T18:10:52.714Z,24.10
2022-08-04T18:13:28.126Z,24.00
2022-08-04T18:16:06.206Z,23.90
2022-08-04T18:18:41.758Z,23.70
2022-08-04T18:21:16.067Z,23.70
2022-08-04T18:23:50.476Z,23.60
2022-08-04T18:26:18.278Z,23.60
2022-08-04T18:28:51.108Z,23.50
2022-08-04T18:31:18.056Z,23.50
2022-08-04T18:33:57.230Z,23.40
2022-08-04T18:36:33.133Z,23.40
2022-08-04T18:39:11.929Z,23.30
2022-08-04T18:42:02.561Z,23.30
2022-08-04T18:44:29.357Z,23.20
2022-08-04T18:46:57.809Z,23.20
2022-08-04T18:50:49.749Z,23.20
2022-08-04T18:52:33.206Z,23.00
2022-08-04T18:55:01.847Z,23.00
2022-08-04T18:57:59.767Z,22.90
2022-08-04T19:00:19.798Z,22.90
2022-08-04T19:02:47.628Z,22.80
2022-08-04T19:05:17.183Z,22.70
2022-08-04T19:08:02.073Z,22.70
2022-08-04T19:10:31.993Z,22.60
2022-08-04T19:12:59.406Z,22.60
2022-08-04T19:15:34.667Z,22.60
2022-08-04T19:18:02.568Z,22.50
2022-08-04T19:20:34.391Z,22.50
2022-08-04T19:24:28.151Z,22.50
2022-08-04T19:26:03.950Z,22.50
2022-08-04T19:28:35.178Z,22.50
2022-08-04T19:31:07.763Z,22.50
2022-08-04T19:33:58.929Z,22.40
2022-08-04T19:36:27.978Z,22.40
2022-08-04T19:39:02.228Z,22.40
2022-08-04T19:41:31.273Z,22.40
2022-08-04T19:43:58.539Z,22.40
2022-08-04T19:46:28.630Z,22.40
2022-08-04T19:48:59.071Z,22.40
2022-08-04T19:51:32.917Z,22.40
2022-08-04T19:56:48.739Z,22.30
2022-08-04T19:59:15.742Z,22.30
2022-08-04T20:01:45.634Z,22.20
2022-08-04T20:04:14.614Z,22.20
2022-08-04T20:06:43.109Z,22.20
2022-08-04T20:09:25.618Z,22.20
2022-08-04T20:11:55.927Z,22.20
2022-08-04T20:14:32.478Z,22.10
2022-08-04T20:17:03.201Z,22.10
2022-08-04T20:19:38.839Z,22.00
2022-08-04T20:22:50.494Z,22.00
2022-08-04T20:25:01.054Z,22.00
2022-08-04T20:27:59.229Z,22.00
2022-08-04T20:30:28.942Z,22.00
2022-08-04T20:32:56.426Z,21.90
2022-08-04T20:35:26.906Z,21.90
2022-08-04T20:38:00.195Z,21.90
2022-08-04T20:40:30.437Z,21.90
2022-08-04T20:42:59.634Z,21.90
2022-08-04T20:45:55.857Z,21.90
2022-08-04T20:48:14.242Z,21.90
2022-08-04T20:50:42.601Z,21.90
2022-08-04T20:53:16.151Z,21.90
2022-08-04T20:55:55.274Z,21.90
2022-08-04T20:58:27.343Z,21.80
2022-08-04T21:00:55.891Z,21.80
2022-08-04T21:03:49.272Z,21.80
2022-08-04T21:06:11.166Z,21.70
2022-08-04T21:08:38.670Z,21.70
2022-08-04T21:11:06.994Z,21.80
2022-08-04T21:13:52.252Z,21.70
2022-08-04T21:16:54.158Z,21.70
2022-08-04T21:19:13.695Z,21.70
2022-08-04T21:21:42.369Z,21.60
2022-08-04T21:24:09.982Z,21.60
2022-08-04T21:26:42.779Z,21.60
2022-08-04T21:29:10.179Z,21.60
2022-08-04T21:31:50.196Z,21.60
2022-08-04T21:34:39.618Z,21.60
2022-08-04T21:37:05.577Z,21.50
2022-08-04T21:39:32.884Z,21.50
2022-08-04T21:42:29.363Z,21.50
2022-08-04T21:44:58.113Z,21.50
2022-08-04T21:47:25.205Z,21.50
2022-08-04T21:49:56.269Z,21.50
2022-08-04T21:52:24.435Z,21.50
2022-08-04T21:54:54.548Z,21.40
2022-08-04T22:00:10.822Z,21.40
2022-08-04T22:02:45.426Z,21.30
2022-08-04T22:05:15.770Z,21.30
2022-08-04T22:07:50.078Z,21.30
2022-08-04T22:10:18.580Z,21.30
2022-08-04T22:12:59.773Z,21.30
2022-08-04T22:16:03.451Z,21.30
2022-08-04T22:18:21.047Z,21.30
2022-08-04T22:20:52.048Z,21.30
2022-08-04T22:23:23.158Z,21.30
2022-08-04T22:25:55.383Z,21.30
2022-08-04T22:28:27.836Z,21.20
2022-08-04T22:30:57.335Z,21.20
2022-08-04T22:33:55.257Z,21.20
2022-08-04T22:36:14.732Z,21.20
2022-08-04T22:38:50.209Z,21.10
2022-08-04T22:41:33.874Z,21.20
2022-08-04T22:44:01.487Z,21.20
2022-08-04T22:46:33.569Z,21.20
2022-08-04T22:49:00.650Z,21.10
2022-08-04T22:51:27.618Z,21.10
2022-08-04T22:53:54.551Z,21.10
2022-08-04T22:56:38.047Z,21.10
2022-08-04T22:59:10.037Z,21.10
2022-08-04T23:02:00.701Z,21.00
2022-08-04T23:04:33.371Z,21.00
2022-08-04T23:07:09.018Z,21.00
2022-08-04T23:09:51.105Z,20.90
2022-08-04T23:12:27.311Z,20.90
2022-08-04T23:14:56.968Z,20.80
2022-08-04T23:17:25.439Z,20.80
2022-08-04T23:19:58.648Z,20.70
2022-08-04T23:22:42.154Z,20.70
2022-08-04T23:25:16.301Z,20.70
2022-08-04T23:27:50.411Z,20.70
2022-08-04T23:30:21.919Z,20.60
2022-08-04T23:32:54.740Z,20.60
2022-08-04T23:35:22.623Z,20.60
2022-08-04T23:37:56.363Z,20.60
2022-08-04T23:40:34.343Z,20.60
2022-08-04T23:43:16.908Z,20.60
2022-08-04T23:46:07.004Z,20.50
2022-08-04T23:48:33.700Z,20.50
2022-08-04T23:51:13.942Z,20.50
2022-08-04T23:53:41.809Z,20.40
2022-08-04T23:56:28.716Z,20.40
2022-08-04T23:58:56.264Z,20.30
